sensor_id;sensor_type;location;lat;lon;timestamp;P1;durP1;ratioP1;P2;durP2;ratioP2
4317;SDS011;2172;53.576;9.934;2023-08-30T00:00:00;10.93;;;9.87;;
4317;SDS011;2172;53.576;9.934;2023-08-30T00:02:31;5.87;;;5.37;;
4317;SDS011;2172;53.576;9.934;2023-08-30T00:04:59;4.90;;;4.50;;
4317;SDS011;2172;53.576;9.934;2023-08-30T00:07:27;5.77;;;4.90;;
4317;SDS011;2172;53.576;9.934;2023-08-30T00:09:56;5.10;;;4.60;;
4317;SDS011;2172;53.576;9.934;2023-08-30T00:12:24;5.93;;;4.97;;
4317;SDS011;2172;53.576;9.934;2023-08-30T00:14:51;4.90;;;4.50;;
4317;SDS011;2172;53.576;9.934;2023-08-30T00:17:19;6.30;;;5.40;;
4317;SDS011;2172;53.576;9.934;2023-08-30T00:19:47;6.30;;;5.70;;
4317;SDS011;2172;53.576;9.934;2023-08-30T00:22:14;6.17;;;5.50;;
4317;SDS011;2172;53.576;9.934;2023-08-30T00:24:42;7.20;;;6.50;;
4317;SDS011;2172;53.576;9.934;2023-08-30T00:27:11;7.43;;;6.40;;
4317;SDS011;2172;53.576;9.934;2023-08-30T00:29:39;6.73;;;6.03;;
4317;SDS011;2172;53.576;9.934;2023-08-30T00:32:07;7.00;;;6.40;;
4317;SDS011;2172;53.576;9.934;2023-08-30T00:34:34;7.33;;;5.70;;
4317;SDS011;2172;53.576;9.934;2023-08-30T00:37:02;5.73;;;5.23;;
4317;SDS011;2172;53.576;9.934;2023-08-30T00:39:29;7.73;;;5.73;;
4317;SDS011;2172;53.576;9.934;2023-08-30T00:41:59;7.10;;;6.40;;
4317;SDS011;2172;53.576;9.934;2023-08-30T00:44:31;6.87;;;5.87;;
4317;SDS011;2172;53.576;9.934;2023-08-30T00:46:59;6.57;;;5.87;;
4317;SDS011;2172;53.576;9.934;2023-08-30T00:49:27;5.67;;;5.20;;
4317;SDS011;2172;53.576;9.934;2023-08-30T00:51:56;6.07;;;5.47;;
4317;SDS011;2172;53.576;9.934;2023-08-30T00:54:24;5.30;;;4.90;;
4317;SDS011;2172;53.576;9.934;2023-08-30T00:56:51;6.83;;;6.17;;
4317;SDS011;2172;53.576;9.934;2023-08-30T00:59:19;7.83;;;6.40;;
4317;SDS011;2172;53.576;9.934;2023-08-30T01:01:48;7.00;;;6.20;;
4317;SDS011;2172;53.576;9.934;2023-08-30T01:04:16;7.50;;;6.20;;
4317;SDS011;2172;53.576;9.934;2023-08-30T01:06:44;7.13;;;6.43;;
4317;SDS011;2172;53.576;9.934;2023-08-30T01:09:14;6.67;;;5.93;;
4317;SDS011;2172;53.576;9.934;2023-08-30T01:11:43;7.20;;;6.53;;
4317;SDS011;2172;53.576;9.934;2023-08-30T01:14:15;6.70;;;5.43;;
4317;SDS011;2172;53.576;9.934;2023-08-30T01:16:45;7.13;;;6.47;;
4317;SDS011;2172;53.576;9.934;2023-08-30T01:19:18;7.10;;;6.50;;
4317;SDS011;2172;53.576;9.934;2023-08-30T01:21:56;7.53;;;6.87;;
4317;SDS011;2172;53.576;9.934;2023-08-30T01:24:29;6.83;;;6.23;;
4317;SDS011;2172;53.576;9.934;2023-08-30T01:27:09;7.07;;;6.17;;
4317;SDS011;2172;53.576;9.934;2023-08-30T01:29:37;8.87;;;6.90;;
4317;SDS011;2172;53.576;9.934;2023-08-30T01:32:07;6.80;;;6.20;;
4317;SDS011;2172;53.576;9.934;2023-08-30T01:34:35;7.80;;;7.00;;
4317;SDS011;2172;53.576;9.934;2023-08-30T01:37:04;8.00;;;7.20;;
4317;SDS011;2172;53.576;9.934;2023-08-30T01:39:33;8.23;;;7.00;;
4317;SDS011;2172;53.576;9.934;2023-08-30T01:42:01;6.00;;;5.50;;
4317;SDS011;2172;53.576;9.934;2023-08-30T01:44:31;6.60;;;6.00;;
4317;SDS011;2172;53.576;9.934;2023-08-30T01:46:59;6.30;;;5.70;;
4317;SDS011;2172;53.576;9.934;2023-08-30T01:49:30;7.37;;;6.60;;
4317;SDS011;2172;53.576;9.934;2023-08-30T01:51:58;7.17;;;6.17;;
4317;SDS011;2172;53.576;9.934;2023-08-30T01:54:26;8.37;;;7.20;;
4317;SDS011;2172;53.576;9.934;2023-08-30T01:56:54;8.83;;;7.57;;
4317;SDS011;2172;53.576;9.934;2023-08-30T01:59:23;7.50;;;6.90;;
4317;SDS011;2172;53.576;9.934;2023-08-30T02:01:52;12.17;;;10.60;;
4317;SDS011;2172;53.576;9.934;2023-08-30T02:04:20;9.03;;;7.47;;
4317;SDS011;2172;53.576;9.934;2023-08-30T02:06:48;10.70;;;7.43;;
4317;SDS011;2172;53.576;9.934;2023-08-30T02:09:21;9.43;;;7.93;;
4317;SDS011;2172;53.576;9.934;2023-08-30T02:11:53;9.43;;;8.50;;
4317;SDS011;2172;53.576;9.934;2023-08-30T02:14:21;9.20;;;8.30;;
4317;SDS011;2172;53.576;9.934;2023-08-30T02:16:49;8.93;;;8.13;;
4317;SDS011;2172;53.576;9.934;2023-08-30T02:19:18;9.80;;;7.63;;
4317;SDS011;2172;53.576;9.934;2023-08-30T02:21:47;7.70;;;6.80;;
4317;SDS011;2172;53.576;9.934;2023-08-30T02:24:17;8.27;;;7.10;;
4317;SDS011;2172;53.576;9.934;2023-08-30T02:26:44;9.90;;;8.97;;
4317;SDS011;2172;53.576;9.934;2023-08-30T02:29:12;8.70;;;7.90;;
4317;SDS011;2172;53.576;9.934;2023-08-30T02:31:40;9.80;;;8.80;;
4317;SDS011;2172;53.576;9.934;2023-08-30T02:34:09;11.63;;;8.70;;
4317;SDS011;2172;53.576;9.934;2023-08-30T02:36:36;9.40;;;8.50;;
4317;SDS011;2172;53.576;9.934;2023-08-30T02:39:04;9.20;;;8.40;;
4317;SDS011;2172;53.576;9.934;2023-08-30T02:41:32;12.70;;;9.47;;
4317;SDS011;2172;53.576;9.934;2023-08-30T02:43:59;11.83;;;10.60;;
4317;SDS011;2172;53.576;9.934;2023-08-30T02:46:27;10.70;;;9.70;;
4317;SDS011;2172;53.576;9.934;2023-08-30T02:48:54;9.53;;;8.50;;
4317;SDS011;2172;53.576;9.934;2023-08-30T02:51:23;9.00;;;8.20;;
4317;SDS011;2172;53.576;9.934;2023-08-30T02:53:51;9.10;;;8.20;;
4317;SDS011;2172;53.576;9.934;2023-08-30T02:56:19;16.60;;;11.00;;
4317;SDS011;2172;53.576;9.934;2023-08-30T02:58:47;15.63;;;12.77;;
4317;SDS011;2172;53.576;9.934;2023-08-30T03:01:14;13.27;;;11.97;;
4317;SDS011;2172;53.576;9.934;2023-08-30T03:03:42;12.10;;;10.90;;
4317;SDS011;2172;53.576;9.934;2023-08-30T03:06:10;11.47;;;10.27;;
4317;SDS011;2172;53.576;9.934;2023-08-30T03:08:40;12.10;;;10.83;;
4317;SDS011;2172;53.576;9.934;2023-08-30T03:11:09;14.20;;;11.57;;
4317;SDS011;2172;53.576;9.934;2023-08-30T03:13:42;12.53;;;11.23;;
4317;SDS011;2172;53.576;9.934;2023-08-30T03:16:10;12.97;;;11.77;;
4317;SDS011;2172;53.576;9.934;2023-08-30T03:18:38;14.33;;;12.83;;
4317;SDS011;2172;53.576;9.934;2023-08-30T03:21:06;13.50;;;12.17;;
4317;SDS011;2172;53.576;9.934;2023-08-30T03:23:34;14.13;;;11.80;;
4317;SDS011;2172;53.576;9.934;2023-08-30T03:26:08;15.93;;;12.10;;
4317;SDS011;2172;53.576;9.934;2023-08-30T03:28:36;14.03;;;12.63;;
4317;SDS011;2172;53.576;9.934;2023-08-30T03:31:11;14.23;;;12.83;;
4317;SDS011;2172;53.576;9.934;2023-08-30T03:33:39;14.40;;;13.03;;
4317;SDS011;2172;53.576;9.934;2023-08-30T03:36:07;14.70;;;13.30;;
4317;SDS011;2172;53.576;9.934;2023-08-30T03:38:36;15.47;;;12.63;;
4317;SDS011;2172;53.576;9.934;2023-08-30T03:41:04;14.20;;;12.80;;
4317;SDS011;2172;53.576;9.934;2023-08-30T03:43:33;15.87;;;13.97;;
4317;SDS011;2172;53.576;9.934;2023-08-30T03:46:01;13.67;;;12.10;;
4317;SDS011;2172;53.576;9.934;2023-08-30T03:48:29;15.00;;;12.20;;
4317;SDS011;2172;53.576;9.934;2023-08-30T03:50:57;14.70;;;13.20;;
4317;SDS011;2172;53.576;9.934;2023-08-30T03:53:25;14.67;;;13.17;;
4317;SDS011;2172;53.576;9.934;2023-08-30T03:55:55;19.07;;;15.00;;
4317;SDS011;2172;53.576;9.934;2023-08-30T03:58:23;16.77;;;15.03;;
4317;SDS011;2172;53.576;9.934;2023-08-30T04:00:52;18.00;;;13.83;;
4317;SDS011;2172;53.576;9.934;2023-08-30T04:03:19;18.43;;;13.40;;
4317;SDS011;2172;53.576;9.934;2023-08-30T04:05:47;16.37;;;13.83;;
4317;SDS011;2172;53.576;9.934;2023-08-30T04:08:20;14.47;;;12.97;;
4317;SDS011;2172;53.576;9.934;2023-08-30T04:10:51;14.70;;;13.17;;
4317;SDS011;2172;53.576;9.934;2023-08-30T04:13:19;16.20;;;14.30;;
4317;SDS011;2172;53.576;9.934;2023-08-30T04:15:47;22.50;;;15.10;;
4317;SDS011;2172;53.576;9.934;2023-08-30T04:18:16;15.93;;;14.23;;
4317;SDS011;2172;53.576;9.934;2023-08-30T04:20:44;13.97;;;12.33;;
4317;SDS011;2172;53.576;9.934;2023-08-30T04:23:12;15.40;;;13.80;;
4317;SDS011;2172;53.576;9.934;2023-08-30T04:25:40;17.07;;;14.30;;
4317;SDS011;2172;53.576;9.934;2023-08-30T04:28:09;15.97;;;13.60;;
4317;SDS011;2172;53.576;9.934;2023-08-30T04:30:37;14.67;;;12.73;;
4317;SDS011;2172;53.576;9.934;2023-08-30T04:33:04;18.40;;;14.13;;
4317;SDS011;2172;53.576;9.934;2023-08-30T04:35:33;13.57;;;12.30;;
4317;SDS011;2172;53.576;9.934;2023-08-30T04:38:01;15.77;;;12.90;;
4317;SDS011;2172;53.576;9.934;2023-08-30T04:40:29;15.57;;;13.40;;
4317;SDS011;2172;53.576;9.934;2023-08-30T04:42:58;17.43;;;12.93;;
4317;SDS011;2172;53.576;9.934;2023-08-30T04:45:25;12.40;;;11.20;;
4317;SDS011;2172;53.576;9.934;2023-08-30T04:47:53;12.57;;;11.37;;
4317;SDS011;2172;53.576;9.934;2023-08-30T04:50:21;13.80;;;12.40;;
4317;SDS011;2172;53.576;9.934;2023-08-30T04:52:50;15.43;;;11.47;;
4317;SDS011;2172;53.576;9.934;2023-08-30T04:55:17;12.60;;;10.80;;
4317;SDS011;2172;53.576;9.934;2023-08-30T04:57:46;12.80;;;11.60;;
4317;SDS011;2172;53.576;9.934;2023-08-30T05:00:15;13.20;;;11.80;;
4317;SDS011;2172;53.576;9.934;2023-08-30T05:02:45;15.80;;;14.30;;
4317;SDS011;2172;53.576;9.934;2023-08-30T05:05:14;15.67;;;12.87;;
4317;SDS011;2172;53.576;9.934;2023-08-30T05:07:42;14.03;;;11.07;;
4317;SDS011;2172;53.576;9.934;2023-08-30T05:10:11;12.33;;;11.03;;
4317;SDS011;2172;53.576;9.934;2023-08-30T05:12:39;12.20;;;11.00;;
4317;SDS011;2172;53.576;9.934;2023-08-30T05:15:09;14.20;;;11.00;;
4317;SDS011;2172;53.576;9.934;2023-08-30T05:17:37;14.27;;;11.67;;
4317;SDS011;2172;53.576;9.934;2023-08-30T05:20:05;16.67;;;11.90;;
4317;SDS011;2172;53.576;9.934;2023-08-30T05:22:33;12.37;;;11.17;;
4317;SDS011;2172;53.576;9.934;2023-08-30T05:25:03;14.03;;;10.63;;
4317;SDS011;2172;53.576;9.934;2023-08-30T05:27:32;14.27;;;11.93;;
4317;SDS011;2172;53.576;9.934;2023-08-30T05:29:59;14.00;;;11.63;;
4317;SDS011;2172;53.576;9.934;2023-08-30T05:32:28;22.20;;;12.30;;
4317;SDS011;2172;53.576;9.934;2023-08-30T05:35:15;12.90;;;11.60;;
4317;SDS011;2172;53.576;9.934;2023-08-30T05:37:49;16.10;;;12.70;;
4317;SDS011;2172;53.576;9.934;2023-08-30T05:40:35;15.97;;;11.47;;
4317;SDS011;2172;53.576;9.934;2023-08-30T05:43:09;20.20;;;12.57;;
4317;SDS011;2172;53.576;9.934;2023-08-30T05:45:36;13.67;;;11.90;;
4317;SDS011;2172;53.576;9.934;2023-08-30T05:48:04;14.10;;;11.20;;
4317;SDS011;2172;53.576;9.934;2023-08-30T05:50:32;12.93;;;10.30;;
4317;SDS011;2172;53.576;9.934;2023-08-30T05:53:00;20.63;;;12.73;;
4317;SDS011;2172;53.576;9.934;2023-08-30T05:55:29;14.10;;;12.33;;
4317;SDS011;2172;53.576;9.934;2023-08-30T05:57:57;15.20;;;11.47;;
4317;SDS011;2172;53.576;9.934;2023-08-30T06:00:25;16.53;;;12.17;;
4317;SDS011;2172;53.576;9.934;2023-08-30T06:02:54;14.80;;;12.83;;
4317;SDS011;2172;53.576;9.934;2023-08-30T06:05:21;15.17;;;11.40;;
4317;SDS011;2172;53.576;9.934;2023-08-30T06:07:49;12.83;;;11.60;;
4317;SDS011;2172;53.576;9.934;2023-08-30T06:10:16;15.33;;;12.13;;
4317;SDS011;2172;53.576;9.934;2023-08-30T06:12:44;13.20;;;11.80;;
4317;SDS011;2172;53.576;9.934;2023-08-30T06:15:11;12.30;;;9.63;;
4317;SDS011;2172;53.576;9.934;2023-08-30T06:17:40;11.50;;;9.77;;
4317;SDS011;2172;53.576;9.934;2023-08-30T06:20:08;12.83;;;9.10;;
4317;SDS011;2172;53.576;9.934;2023-08-30T06:22:36;10.53;;;9.73;;
4317;SDS011;2172;53.576;9.934;2023-08-30T06:25:05;10.80;;;9.43;;
4317;SDS011;2172;53.576;9.934;2023-08-30T06:27:33;13.10;;;9.23;;
4317;SDS011;2172;53.576;9.934;2023-08-30T06:30:00;13.03;;;10.27;;
4317;SDS011;2172;53.576;9.934;2023-08-30T06:32:29;12.80;;;10.83;;
4317;SDS011;2172;53.576;9.934;2023-08-30T06:34:59;11.13;;;9.83;;
4317;SDS011;2172;53.576;9.934;2023-08-30T06:37:27;12.50;;;11.20;;
4317;SDS011;2172;53.576;9.934;2023-08-30T06:39:55;14.27;;;10.20;;
4317;SDS011;2172;53.576;9.934;2023-08-30T06:42:22;11.17;;;10.03;;
4317;SDS011;2172;53.576;9.934;2023-08-30T06:44:50;12.47;;;11.33;;
4317;SDS011;2172;53.576;9.934;2023-08-30T06:47:18;11.47;;;10.37;;
4317;SDS011;2172;53.576;9.934;2023-08-30T06:49:46;10.70;;;9.60;;
4317;SDS011;2172;53.576;9.934;2023-08-30T06:52:14;13.77;;;12.40;;
4317;SDS011;2172;53.576;9.934;2023-08-30T06:54:42;11.70;;;10.50;;
4317;SDS011;2172;53.576;9.934;2023-08-30T06:57:09;11.80;;;10.20;;
4317;SDS011;2172;53.576;9.934;2023-08-30T06:59:37;13.77;;;12.57;;
4317;SDS011;2172;53.576;9.934;2023-08-30T07:02:05;12.80;;;11.60;;
4317;SDS011;2172;53.576;9.934;2023-08-30T07:04:32;13.53;;;12.10;;
4317;SDS011;2172;53.576;9.934;2023-08-30T07:07:00;12.93;;;11.40;;
4317;SDS011;2172;53.576;9.934;2023-08-30T07:09:30;12.83;;;11.50;;
4317;SDS011;2172;53.576;9.934;2023-08-30T07:11:58;12.30;;;10.60;;
4317;SDS011;2172;53.576;9.934;2023-08-30T07:14:26;12.30;;;11.10;;
4317;SDS011;2172;53.576;9.934;2023-08-30T07:16:53;11.60;;;10.60;;
4317;SDS011;2172;53.576;9.934;2023-08-30T07:19:21;13.50;;;12.20;;
4317;SDS011;2172;53.576;9.934;2023-08-30T07:21:49;13.10;;;11.27;;
4317;SDS011;2172;53.576;9.934;2023-08-30T07:24:16;13.27;;;11.97;;
4317;SDS011;2172;53.576;9.934;2023-08-30T07:26:45;13.07;;;11.77;;
4317;SDS011;2172;53.576;9.934;2023-08-30T07:29:13;13.43;;;12.13;;
4317;SDS011;2172;53.576;9.934;2023-08-30T07:31:40;14.67;;;13.00;;
4317;SDS011;2172;53.576;9.934;2023-08-30T07:34:07;15.40;;;13.80;;
4317;SDS011;2172;53.576;9.934;2023-08-30T07:36:35;16.10;;;14.43;;
4317;SDS011;2172;53.576;9.934;2023-08-30T07:39:03;17.87;;;16.07;;
4317;SDS011;2172;53.576;9.934;2023-08-30T07:41:32;18.63;;;16.63;;
4317;SDS011;2172;53.576;9.934;2023-08-30T07:44:01;17.23;;;15.40;;
4317;SDS011;2172;53.576;9.934;2023-08-30T07:46:29;18.73;;;16.53;;
4317;SDS011;2172;53.576;9.934;2023-08-30T07:49:14;18.23;;;16.33;;
4317;SDS011;2172;53.576;9.934;2023-08-30T07:51:41;18.63;;;16.00;;
4317;SDS011;2172;53.576;9.934;2023-08-30T07:54:09;16.87;;;15.27;;
4317;SDS011;2172;53.576;9.934;2023-08-30T07:56:37;20.40;;;18.30;;
4317;SDS011;2172;53.576;9.934;2023-08-30T07:59:06;19.23;;;16.37;;
4317;SDS011;2172;53.576;9.934;2023-08-30T08:01:33;19.17;;;17.20;;
4317;SDS011;2172;53.576;9.934;2023-08-30T08:04:00;18.63;;;16.03;;
4317;SDS011;2172;53.576;9.934;2023-08-30T08:06:28;18.20;;;16.30;;
4317;SDS011;2172;53.576;9.934;2023-08-30T08:08:55;19.23;;;17.23;;
4317;SDS011;2172;53.576;9.934;2023-08-30T08:11:23;17.37;;;14.80;;
4317;SDS011;2172;53.576;9.934;2023-08-30T08:13:51;20.23;;;18.17;;
4317;SDS011;2172;53.576;9.934;2023-08-30T08:16:20;16.10;;;14.60;;
4317;SDS011;2172;53.576;9.934;2023-08-30T08:18:48;18.77;;;16.23;;
4317;SDS011;2172;53.576;9.934;2023-08-30T08:21:16;17.53;;;15.50;;
4317;SDS011;2172;53.576;9.934;2023-08-30T08:23:43;16.90;;;14.20;;
4317;SDS011;2172;53.576;9.934;2023-08-30T08:26:14;16.67;;;12.23;;
4317;SDS011;2172;53.576;9.934;2023-08-30T08:28:42;13.43;;;12.10;;
4317;SDS011;2172;53.576;9.934;2023-08-30T08:31:09;16.10;;;13.60;;
4317;SDS011;2172;53.576;9.934;2023-08-30T08:33:39;12.73;;;11.53;;
4317;SDS011;2172;53.576;9.934;2023-08-30T08:36:07;11.80;;;10.60;;
4317;SDS011;2172;53.576;9.934;2023-08-30T08:38:34;11.83;;;10.57;;
4317;SDS011;2172;53.576;9.934;2023-08-30T08:41:05;16.10;;;11.53;;
4317;SDS011;2172;53.576;9.934;2023-08-30T08:43:33;12.57;;;11.37;;
4317;SDS011;2172;53.576;9.934;2023-08-30T08:46:02;11.90;;;10.27;;
4317;SDS011;2172;53.576;9.934;2023-08-30T08:48:31;11.40;;;9.70;;
4317;SDS011;2172;53.576;9.934;2023-08-30T08:51:04;12.03;;;10.80;;
4317;SDS011;2172;53.576;9.934;2023-08-30T08:53:32;10.40;;;9.40;;
4317;SDS011;2172;53.576;9.934;2023-08-30T08:56:00;11.00;;;8.40;;
4317;SDS011;2172;53.576;9.934;2023-08-30T08:58:31;12.17;;;8.87;;
4317;SDS011;2172;53.576;9.934;2023-08-30T09:00:59;9.73;;;8.60;;
4317;SDS011;2172;53.576;9.934;2023-08-30T09:03:27;13.73;;;10.00;;
4317;SDS011;2172;53.576;9.934;2023-08-30T09:05:55;10.80;;;9.57;;
4317;SDS011;2172;53.576;9.934;2023-08-30T09:08:24;9.00;;;8.10;;
4317;SDS011;2172;53.576;9.934;2023-08-30T09:10:52;13.80;;;11.10;;
4317;SDS011;2172;53.576;9.934;2023-08-30T09:13:20;10.50;;;8.70;;
4317;SDS011;2172;53.576;9.934;2023-08-30T09:15:48;12.67;;;10.40;;
4317;SDS011;2172;53.576;9.934;2023-08-30T09:18:15;11.63;;;9.53;;
4317;SDS011;2172;53.576;9.934;2023-08-30T09:20:43;9.40;;;8.33;;
4317;SDS011;2172;53.576;9.934;2023-08-30T09:23:17;8.53;;;7.70;;
4317;SDS011;2172;53.576;9.934;2023-08-30T09:25:47;7.90;;;7.10;;
4317;SDS011;2172;53.576;9.934;2023-08-30T09:28:20;9.20;;;7.67;;
4317;SDS011;2172;53.576;9.934;2023-08-30T09:30:48;7.53;;;6.40;;
4317;SDS011;2172;53.576;9.934;2023-08-30T09:33:20;11.80;;;9.10;;
4317;SDS011;2172;53.576;9.934;2023-08-30T09:35:48;10.30;;;8.80;;
4317;SDS011;2172;53.576;9.934;2023-08-30T09:38:16;9.83;;;8.83;;
4317;SDS011;2172;53.576;9.934;2023-08-30T09:40:44;11.33;;;10.10;;
4317;SDS011;2172;53.576;9.934;2023-08-30T09:43:13;11.13;;;9.50;;
4317;SDS011;2172;53.576;9.934;2023-08-30T09:45:44;10.47;;;8.37;;
4317;SDS011;2172;53.576;9.934;2023-08-30T09:48:11;9.00;;;7.27;;
4317;SDS011;2172;53.576;9.934;2023-08-30T09:50:39;10.10;;;8.57;;
4317;SDS011;2172;53.576;9.934;2023-08-30T09:53:09;19.33;;;8.43;;
4317;SDS011;2172;53.576;9.934;2023-08-30T09:55:37;12.67;;;8.37;;
4317;SDS011;2172;53.576;9.934;2023-08-30T09:58:06;11.10;;;8.30;;
4317;SDS011;2172;53.576;9.934;2023-08-30T10:00:34;8.93;;;7.37;;
4317;SDS011;2172;53.576;9.934;2023-08-30T10:03:02;8.27;;;7.47;;
4317;SDS011;2172;53.576;9.934;2023-08-30T10:05:30;8.03;;;7.23;;
4317;SDS011;2172;53.576;9.934;2023-08-30T10:07:58;10.83;;;8.03;;
4317;SDS011;2172;53.576;9.934;2023-08-30T10:10:26;9.70;;;8.60;;
4317;SDS011;2172;53.576;9.934;2023-08-30T10:12:54;10.03;;;7.17;;
4317;SDS011;2172;53.576;9.934;2023-08-30T10:15:24;11.20;;;6.77;;
4317;SDS011;2172;53.576;9.934;2023-08-30T10:17:53;9.50;;;8.50;;
4317;SDS011;2172;53.576;9.934;2023-08-30T10:20:21;9.93;;;7.40;;
4317;SDS011;2172;53.576;9.934;2023-08-30T10:22:49;7.33;;;6.63;;
4317;SDS011;2172;53.576;9.934;2023-08-30T10:25:20;8.57;;;7.00;;
4317;SDS011;2172;53.576;9.934;2023-08-30T10:27:49;8.27;;;7.37;;
4317;SDS011;2172;53.576;9.934;2023-08-30T10:30:18;12.90;;;7.27;;
4317;SDS011;2172;53.576;9.934;2023-08-30T10:32:48;8.07;;;7.27;;
4317;SDS011;2172;53.576;9.934;2023-08-30T10:35:17;7.43;;;6.63;;
4317;SDS011;2172;53.576;9.934;2023-08-30T10:37:53;12.33;;;7.67;;
4317;SDS011;2172;53.576;9.934;2023-08-30T10:40:21;9.93;;;6.83;;
4317;SDS011;2172;53.576;9.934;2023-08-30T10:42:58;8.30;;;7.20;;
4317;SDS011;2172;53.576;9.934;2023-08-30T10:45:26;8.90;;;8.00;;
4317;SDS011;2172;53.576;9.934;2023-08-30T10:47:56;10.90;;;6.40;;
4317;SDS011;2172;53.576;9.934;2023-08-30T10:50:28;12.20;;;8.00;;
4317;SDS011;2172;53.576;9.934;2023-08-30T10:52:57;9.90;;;6.40;;
4317;SDS011;2172;53.576;9.934;2023-08-30T10:55:24;7.10;;;6.40;;
4317;SDS011;2172;53.576;9.934;2023-08-30T10:57:59;8.97;;;7.03;;
4317;SDS011;2172;53.576;9.934;2023-08-30T11:00:28;9.50;;;7.13;;
4317;SDS011;2172;53.576;9.934;2023-08-30T11:02:57;8.53;;;7.57;;
4317;SDS011;2172;53.576;9.934;2023-08-30T11:05:25;8.17;;;6.77;;
4317;SDS011;2172;53.576;9.934;2023-08-30T11:07:54;8.03;;;7.30;;
4317;SDS011;2172;53.576;9.934;2023-08-30T11:10:21;7.70;;;7.00;;
4317;SDS011;2172;53.576;9.934;2023-08-30T11:12:49;11.33;;;7.57;;
4317;SDS011;2172;53.576;9.934;2023-08-30T11:15:17;7.40;;;6.40;;
4317;SDS011;2172;53.576;9.934;2023-08-30T11:17:46;7.80;;;6.70;;
4317;SDS011;2172;53.576;9.934;2023-08-30T11:20:16;6.53;;;5.90;;
4317;SDS011;2172;53.576;9.934;2023-08-30T11:22:48;7.27;;;6.37;;
4317;SDS011;2172;53.576;9.934;2023-08-30T11:25:16;9.60;;;7.27;;
4317;SDS011;2172;53.576;9.934;2023-08-30T11:27:44;9.33;;;6.37;;
4317;SDS011;2172;53.576;9.934;2023-08-30T11:30:12;8.13;;;6.97;;
4317;SDS011;2172;53.576;9.934;2023-08-30T11:32:40;7.77;;;6.97;;
4317;SDS011;2172;53.576;9.934;2023-08-30T11:35:08;8.70;;;6.97;;
4317;SDS011;2172;53.576;9.934;2023-08-30T11:37:37;11.60;;;7.83;;
4317;SDS011;2172;53.576;9.934;2023-08-30T11:40:08;8.50;;;5.70;;
4317;SDS011;2172;53.576;9.934;2023-08-30T11:42:36;8.03;;;6.20;;
4317;SDS011;2172;53.576;9.934;2023-08-30T11:45:04;9.37;;;6.40;;
4317;SDS011;2172;53.576;9.934;2023-08-30T11:47:32;8.33;;;7.53;;
4317;SDS011;2172;53.576;9.934;2023-08-30T11:50:00;7.80;;;7.00;;
4317;SDS011;2172;53.576;9.934;2023-08-30T11:52:28;8.80;;;6.70;;
4317;SDS011;2172;53.576;9.934;2023-08-30T11:54:58;14.27;;;7.43;;
4317;SDS011;2172;53.576;9.934;2023-08-30T11:57:25;7.27;;;6.57;;
4317;SDS011;2172;53.576;9.934;2023-08-30T11:59:53;8.67;;;7.43;;
4317;SDS011;2172;53.576;9.934;2023-08-30T12:02:20;10.30;;;7.43;;
4317;SDS011;2172;53.576;9.934;2023-08-30T12:04:49;8.87;;;7.70;;
4317;SDS011;2172;53.576;9.934;2023-08-30T12:07:21;9.07;;;7.43;;
4317;SDS011;2172;53.576;9.934;2023-08-30T12:09:49;7.43;;;6.73;;
4317;SDS011;2172;53.576;9.934;2023-08-30T12:12:18;9.17;;;8.27;;
4317;SDS011;2172;53.576;9.934;2023-08-30T12:14:53;8.60;;;7.70;;
4317;SDS011;2172;53.576;9.934;2023-08-30T12:17:22;12.80;;;7.40;;
4317;SDS011;2172;53.576;9.934;2023-08-30T12:19:54;8.50;;;6.70;;
4317;SDS011;2172;53.576;9.934;2023-08-30T12:22:22;8.17;;;7.37;;
4317;SDS011;2172;53.576;9.934;2023-08-30T12:24:50;8.30;;;6.87;;
4317;SDS011;2172;53.576;9.934;2023-08-30T12:27:19;8.17;;;7.40;;
4317;SDS011;2172;53.576;9.934;2023-08-30T12:29:47;8.73;;;7.07;;
4317;SDS011;2172;53.576;9.934;2023-08-30T12:32:16;8.77;;;6.60;;
4317;SDS011;2172;53.576;9.934;2023-08-30T12:34:43;7.13;;;6.43;;
4317;SDS011;2172;53.576;9.934;2023-08-30T12:37:11;10.77;;;6.87;;
4317;SDS011;2172;53.576;9.934;2023-08-30T12:39:38;9.13;;;6.47;;
4317;SDS011;2172;53.576;9.934;2023-08-30T12:42:06;7.40;;;6.40;;
4317;SDS011;2172;53.576;9.934;2023-08-30T12:44:53;10.10;;;7.43;;
4317;SDS011;2172;53.576;9.934;2023-08-30T12:47:21;11.13;;;6.97;;
4317;SDS011;2172;53.576;9.934;2023-08-30T12:49:48;6.73;;;6.13;;
4317;SDS011;2172;53.576;9.934;2023-08-30T12:52:16;10.20;;;7.53;;
4317;SDS011;2172;53.576;9.934;2023-08-30T12:54:43;7.80;;;6.50;;
4317;SDS011;2172;53.576;9.934;2023-08-30T12:57:11;6.90;;;6.30;;
4317;SDS011;2172;53.576;9.934;2023-08-30T12:59:38;8.23;;;7.30;;
4317;SDS011;2172;53.576;9.934;2023-08-30T13:02:07;8.20;;;7.50;;
4317;SDS011;2172;53.576;9.934;2023-08-30T13:04:35;8.17;;;7.37;;
4317;SDS011;2172;53.576;9.934;2023-08-30T13:07:04;9.00;;;7.43;;
4317;SDS011;2172;53.576;9.934;2023-08-30T13:09:31;7.70;;;7.00;;
4317;SDS011;2172;53.576;9.934;2023-08-30T13:11:59;9.20;;;7.00;;
4317;SDS011;2172;53.576;9.934;2023-08-30T13:14:26;7.27;;;5.73;;
4317;SDS011;2172;53.576;9.934;2023-08-30T13:16:54;7.60;;;6.87;;
4317;SDS011;2172;53.576;9.934;2023-08-30T13:19:23;7.50;;;6.70;;
4317;SDS011;2172;53.576;9.934;2023-08-30T13:21:51;7.37;;;6.40;;
4317;SDS011;2172;53.576;9.934;2023-08-30T13:24:20;7.73;;;6.40;;
4317;SDS011;2172;53.576;9.934;2023-08-30T13:26:47;7.57;;;6.60;;
4317;SDS011;2172;53.576;9.934;2023-08-30T13:29:15;7.00;;;6.30;;
4317;SDS011;2172;53.576;9.934;2023-08-30T13:31:42;6.60;;;5.67;;
4317;SDS011;2172;53.576;9.934;2023-08-30T13:34:10;7.13;;;6.33;;
4317;SDS011;2172;53.576;9.934;2023-08-30T13:36:39;8.67;;;5.73;;
4317;SDS011;2172;53.576;9.934;2023-08-30T13:39:06;6.87;;;6.00;;
4317;SDS011;2172;53.576;9.934;2023-08-30T13:41:34;6.67;;;5.90;;
4317;SDS011;2172;53.576;9.934;2023-08-30T13:44:02;6.50;;;5.90;;
4317;SDS011;2172;53.576;9.934;2023-08-30T13:46:30;6.83;;;6.20;;
4317;SDS011;2172;53.576;9.934;2023-08-30T13:48:58;7.40;;;6.67;;
4317;SDS011;2172;53.576;9.934;2023-08-30T13:51:26;7.63;;;6.03;;
4317;SDS011;2172;53.576;9.934;2023-08-30T13:53:55;7.33;;;6.63;;
4317;SDS011;2172;53.576;9.934;2023-08-30T13:56:23;5.50;;;5.00;;
4317;SDS011;2172;53.576;9.934;2023-08-30T13:58:51;6.43;;;5.80;;
4317;SDS011;2172;53.576;9.934;2023-08-30T14:01:18;9.40;;;6.43;;
4317;SDS011;2172;53.576;9.934;2023-08-30T14:03:46;9.47;;;6.30;;
4317;SDS011;2172;53.576;9.934;2023-08-30T14:06:13;6.57;;;5.97;;
4317;SDS011;2172;53.576;9.934;2023-08-30T14:08:41;11.77;;;9.50;;
4317;SDS011;2172;53.576;9.934;2023-08-30T14:11:11;6.90;;;5.30;;
4317;SDS011;2172;53.576;9.934;2023-08-30T14:13:39;6.20;;;5.57;;
4317;SDS011;2172;53.576;9.934;2023-08-30T14:16:07;6.90;;;6.17;;
4317;SDS011;2172;53.576;9.934;2023-08-30T14:18:35;7.50;;;5.57;;
4317;SDS011;2172;53.576;9.934;2023-08-30T14:21:02;6.63;;;5.17;;
4317;SDS011;2172;53.576;9.934;2023-08-30T14:23:30;5.93;;;5.37;;
4317;SDS011;2172;53.576;9.934;2023-08-30T14:25:58;5.33;;;4.83;;
4317;SDS011;2172;53.576;9.934;2023-08-30T14:28:28;6.27;;;5.20;;
4317;SDS011;2172;53.576;9.934;2023-08-30T14:30:55;6.23;;;5.43;;
4317;SDS011;2172;53.576;9.934;2023-08-30T14:33:23;7.67;;;5.60;;
4317;SDS011;2172;53.576;9.934;2023-08-30T14:35:50;7.87;;;6.13;;
4317;SDS011;2172;53.576;9.934;2023-08-30T14:38:18;7.37;;;5.87;;
4317;SDS011;2172;53.576;9.934;2023-08-30T14:40:53;5.70;;;5.13;;
4317;SDS011;2172;53.576;9.934;2023-08-30T14:43:22;8.40;;;5.30;;
4317;SDS011;2172;53.576;9.934;2023-08-30T14:45:51;7.63;;;6.17;;
4317;SDS011;2172;53.576;9.934;2023-08-30T14:48:25;6.00;;;5.40;;
4317;SDS011;2172;53.576;9.934;2023-08-30T14:50:52;6.83;;;5.43;;
4317;SDS011;2172;53.576;9.934;2023-08-30T14:53:20;8.17;;;5.33;;
4317;SDS011;2172;53.576;9.934;2023-08-30T14:55:48;7.10;;;5.27;;
4317;SDS011;2172;53.576;9.934;2023-08-30T14:58:15;7.03;;;5.33;;
4317;SDS011;2172;53.576;9.934;2023-08-30T15:00:43;12.43;;;6.93;;
4317;SDS011;2172;53.576;9.934;2023-08-30T15:03:14;7.13;;;5.47;;
4317;SDS011;2172;53.576;9.934;2023-08-30T15:05:42;7.07;;;6.00;;
4317;SDS011;2172;53.576;9.934;2023-08-30T15:08:09;12.67;;;6.70;;
4317;SDS011;2172;53.576;9.934;2023-08-30T15:10:37;11.70;;;7.40;;